Time;durP1;ratioP1;P1;durP2;ratioP2;P2;SDS_P1;SDS_P2;PMS_P1;PMS_P2;Temp;Humidity;BMP_temperature;BMP_pressure;BME280_temperature;BME280_humidity;BME280_pressure;Samples;Min_cycle;Max_cycle;Signal;HPM_P1;HPM_P2
2021/04/16 00:00:51;;;;;;;8.35;7.55;;;;;;;4.37;99.10;98633.06;1808152;79;20938;-59
2021/04/16 00:03:19;;;;;;;8.35;7.55;;;;;;;4.34;99.03;98629.41;1763979;79;21069;-59
2021/04/16 00:05:48;;;;;;;7.62;6.92;;;;;;;4.33;99.14;98623.79;1809350;79;21108;-58
2021/04/16 00:08:24;;;;;;;8.65;7.78;;;;;;;4.35;99.36;98629.75;1784002;78;21199;-59
2021/04/16 00:10:58;;;;;;;7.80;6.45;;;;;;;4.32;99.12;98630.88;1788212;79;21079;-59
2021/04/16 00:13:27;;;;;;;8.10;7.30;;;;;;;4.30;99.22;98618.85;1787490;79;21017;-59
2021/04/16 00:15:55;;;;;;;7.53;6.75;;;;;;;4.32;99.33;98625.62;1723177;81;20991;-59
2021/04/16 00:18:27;;;;;;;7.12;6.55;;;;;;;4.34;99.08;98629.41;1749342;81;21024;-59
2021/04/16 00:20:57;;;;;;;6.83;6.22;;;;;;;4.31;98.99;98623.95;1760516;80;20966;-59
2021/04/16 00:23:24;;;;;;;7.78;7.08;;;;;;;4.31;99.05;98625.75;1762127;79;21497;-60
2021/04/16 00:25:52;;;;;;;7.55;6.85;;;;;;;4.29;99.15;98621.13;1769137;79;21049;-59
2021/04/16 00:28:24;;;;;;;7.67;7.00;;;;;;;4.29;99.25;98621.13;1757612;79;21566;-59
2021/04/16 00:30:55;;;;;;;7.20;6.55;;;;;;;4.31;99.20;98620.00;1757630;79;21021;-61
2021/04/16 00:33:23;;;;;;;8.45;7.65;;;;;;;4.28;99.10;98616.84;1764534;79;22304;-60
2021/04/16 00:35:51;;;;;;;7.62;6.92;;;;;;;4.26;99.32;98612.22;1757537;80;21072;-59
2021/04/16 00:38:20;;;;;;;8.10;7.40;;;;;;;4.26;99.38;98612.22;1757536;80;21062;-60
2021/04/16 00:41:00;;;;;;;6.97;6.35;;;;;;;4.25;99.51;98616.65;1757610;79;20925;-60
2021/04/16 00:43:31;;;;;;;7.40;6.72;;;;;;;4.21;99.32;98613.99;1762863;79;21504;-60
2021/04/16 00:46:14;;;;;;;7.17;6.28;;;;;;;4.19;99.49;98613.33;1772315;79;22285;-60
2021/04/16 00:48:48;;;;;;;7.20;6.53;;;;;;;4.20;99.72;98608.86;1776207;79;21013;-58
2021/04/16 00:51:24;;;;;;;6.58;5.97;;;;;;;4.19;99.70;98605.91;1764706;79;21097;-58
2021/04/16 00:54:01;;;;;;;7.58;6.87;;;;;;;4.24;99.90;98598.38;1756963;79;28167;-61
2021/04/16 00:56:29;;;;;;;7.85;6.70;;;;;;;4.21;99.91;98602.63;1721368;82;20943;-60
2021/04/16 00:58:58;;;;;;;8.03;7.28;;;;;;;4.21;99.98;98598.68;1693229;83;21193;-61
2021/04/16 01:01:27;;;;;;;7.05;6.45;;;;;;;4.21;99.92;98600.00;1711544;82;20989;-59
2021/04/16 01:03:55;;;;;;;7.37;6.60;;;;;;;4.20;99.97;98600.48;1733523;82;21017;-60
2021/04/16 01:06:23;;;;;;;7.50;6.75;;;;;;;4.19;100.00;98604.59;1704296;82;21034;-60
2021/04/16 01:08:51;;;;;;;6.65;6.03;;;;;;;4.15;99.91;98601.91;1713540;82;20993;-59
2021/04/16 01:11:18;;;;;;;6.33;5.80;;;;;;;4.16;100.00;98599.14;1744121;82;22109;-58
2021/04/16 01:13:46;;;;;;;6.90;6.30;;;;;;;4.17;99.98;98599.97;1721237;82;21558;-59
2021/04/16 01:16:16;;;;;;;6.20;5.60;;;;;;;4.16;100.00;98598.31;1719205;82;20989;-59
2021/04/16 01:18:47;;;;;;;7.15;6.53;;;;;;;4.16;100.00;98595.67;1732112;82;21097;-59
2021/04/16 01:21:19;;;;;;;6.97;6.28;;;;;;;4.15;100.00;98593.53;1718312;82;21527;-59
2021/04/16 01:23:55;;;;;;;6.22;5.62;;;;;;;4.15;100.00;98593.53;1726497;82;21586;-60
2021/04/16 01:26:29;;;;;;;6.45;5.85;;;;;;;4.14;100.00;98595.84;1737430;82;21164;-59
2021/04/16 01:28:58;;;;;;;6.47;5.87;;;;;;;4.12;100.00;98588.56;1720304;82;20963;-60
2021/04/16 01:31:27;;;;;;;7.40;6.70;;;;;;;4.15;100.00;98591.37;1726492;82;21124;-58
2021/04/16 01:33:55;;;;;;;7.47;6.78;;;;;;;4.17;100.00;98586.81;1722392;82;21156;-59
2021/04/16 01:36:32;;;;;;;7.30;6.60;;;;;;;4.16;100.00;98588.61;1719247;82;22382;-59
2021/04/16 01:39:00;;;;;;;7.22;6.53;;;;;;;4.14;100.00;98590.58;1724311;82;21186;-58
2021/04/16 01:41:29;;;;;;;7.25;6.55;;;;;;;4.12;100.00;98593.02;1729062;82;21544;-60
2021/04/16 01:44:08;;;;;;;7.40;6.70;;;;;;;4.08;100.00;98594.28;1741888;82;20902;-59
2021/04/16 01:47:06;;;;;;;7.28;6.58;;;;;;;4.05;100.00;98591.95;1739057;81;21566;-58
2021/04/16 01:49:38;;;;;;;7.05;6.15;;;;;;;4.05;100.00;98590.63;1734216;82;20994;-59
2021/04/16 01:52:10;;;;;;;6.72;6.12;;;;;;;4.06;100.00;98589.66;1719166;82;21585;-60
2021/04/16 01:54:43;;;;;;;6.62;5.95;;;;;;;4.06;100.00;98588.35;1727216;82;21479;-60
2021/04/16 01:57:22;;;;;;;7.28;6.60;;;;;;;4.06;100.00;98590.98;1724646;82;21586;-61
2021/04/16 01:59:51;;;;;;;6.67;5.97;;;;;;;4.06;100.00;98584.41;1729159;82;20933;-58
2021/04/16 02:02:28;;;;;;;5.70;5.10;;;;;;;4.10;100.00;98584.42;1728659;82;20970;-60
2021/04/16 02:05:07;;;;;;;5.83;5.33;;;;;;;4.14;100.00;98585.80;1816795;78;28091;-60
2021/04/16 02:07:34;;;;;;;6.35;5.72;;;;;;;4.08;100.00;98581.95;1784621;79;21534;-58
2021/04/16 02:10:04;;;;;;;5.67;5.12;;;;;;;4.06;100.00;98577.34;1782496;78;21145;-58
2021/04/16 02:12:32;;;;;;;6.00;5.42;;;;;;;4.05;100.00;98578.79;1776836;79;21147;-59
2021/04/16 02:15:00;;;;;;;5.40;4.90;;;;;;;4.04;100.00;98576.64;1777919;79;20982;-58
2021/04/16 02:17:28;;;;;;;5.20;4.70;;;;;;;4.05;100.00;98575.67;1803960;79;20942;-58
2021/04/16 02:20:00;;;;;;;5.85;5.25;;;;;;;4.06;100.00;98575.19;1765065;79;21680;-58
2021/04/16 02:22:28;;;;;;;5.53;5.03;;;;;;;4.02;100.00;98575.97;1776339;79;22208;-58
2021/04/16 02:24:56;;;;;;;4.75;4.35;;;;;;;4.03;100.00;98566.27;1775820;79;21063;-60
2021/04/16 02:27:26;;;;;;;4.83;4.20;;;;;;;4.03;100.00;98577.64;1767260;79;21012;-58
2021/04/16 02:29:55;;;;;;;5.72;5.22;;;;;;;4.03;100.00;98575.48;1758242;79;20980;-57
2021/04/16 02:32:23;;;;;;;5.10;4.60;;;;;;;4.04;100.00;98578.47;1780876;79;21638;-61
2021/04/16 02:34:52;;;;;;;5.70;5.20;;;;;;;4.05;100.00;98576.16;1773208;79;21067;-59
2021/04/16 02:37:22;;;;;;;4.90;4.42;;;;;;;4.06;100.00;98576.51;1793673;79;21160;-58
2021/04/16 02:39:49;;;;;;;5.37;4.90;;;;;;;4.04;100.00;98577.16;1776858;79;21554;-59
2021/04/16 02:42:17;;;;;;;5.60;5.10;;;;;;;4.01;100.00;98570.88;1784547;79;21079;-58
2021/04/16 02:44:45;;;;;;;5.12;4.65;;;;;;;4.01;100.00;98573.50;1758191;79;21155;-59
2021/04/16 02:47:13;;;;;;;4.60;4.20;;;;;;;4.01;100.00;98573.50;1773871;79;21394;-60
2021/04/16 02:49:40;;;;;;;4.28;3.92;;;;;;;3.99;100.00;98573.64;1765034;79;21132;-59
2021/04/16 02:52:08;;;;;;;5.03;4.60;;;;;;;3.96;100.00;98573.96;1790693;79;21141;-57
2021/04/16 02:54:39;;;;;;;5.08;4.60;;;;;;;3.93;100.00;98565.53;1758264;79;21095;-58
2021/04/16 02:57:08;;;;;;;4.53;4.12;;;;;;;3.92;100.00;98572.59;1795463;79;20966;-59
2021/04/16 02:59:36;;;;;;;4.72;4.22;;;;;;;3.90;100.00;98572.41;1786157;79;21846;-58
2021/04/16 03:02:04;;;;;;;3.60;3.30;;;;;;;3.90;100.00;98573.23;1783665;79;21093;-59
2021/04/16 03:04:33;;;;;;;4.05;3.70;;;;;;;3.88;100.00;98576.52;1751303;79;21091;-60
2021/04/16 03:07:01;;;;;;;4.37;4.08;;;;;;;3.88;100.00;98573.05;1781591;79;20928;-60
2021/04/16 03:09:28;;;;;;;4.90;4.12;;;;;;;3.87;100.00;98570.06;1779564;79;21554;-62
2021/04/16 03:11:56;;;;;;;4.90;4.08;;;;;;;3.85;100.00;98566.77;1763800;79;21135;-60
2021/04/16 03:14:25;;;;;;;5.33;4.03;;;;;;;3.82;100.00;98569.20;1768558;79;21037;-60
2021/04/16 03:16:53;;;;;;;5.25;4.05;;;;;;;3.84;100.00;98571.67;1775025;79;21570;-59
2021/04/16 03:19:21;;;;;;;5.22;4.42;;;;;;;3.83;100.00;98568.73;1791121;79;20918;-59
2021/04/16 03:21:48;;;;;;;4.03;3.62;;;;;;;3.85;100.00;98570.23;1765457;78;20986;-59
2021/04/16 03:24:16;;;;;;;3.55;3.25;;;;;;;3.85;100.00;98568.08;1769223;79;21392;-59
2021/04/16 03:26:44;;;;;;;3.37;3.08;;;;;;;3.86;100.00;98574.50;1777530;78;21187;-59
2021/04/16 03:29:12;;;;;;;3.92;3.62;;;;;;;3.86;100.00;98571.87;1780363;78;21485;-60
2021/04/16 03:31:39;;;;;;;3.85;3.45;;;;;;;3.84;100.00;98571.20;1770409;79;20986;-60
2021/04/16 03:34:08;;;;;;;3.92;3.05;;;;;;;3.82;100.00;98570.52;1786039;79;20986;-59
2021/04/16 03:36:36;;;;;;;4.33;3.83;;;;;;;3.81;100.00;98565.42;1786573;79;21386;-58
2021/04/16 03:39:06;;;;;;;3.60;3.20;;;;;;;3.82;100.00;98574.95;1781227;78;21124;-58
2021/04/16 03:41:33;;;;;;;4.30;3.90;;;;;;;3.84;100.00;98569.05;1788871;79;21480;-59
2021/04/16 03:44:01;;;;;;;2.95;2.47;;;;;;;3.86;100.00;98567.92;1773875;78;21565;-60
2021/04/16 03:46:28;;;;;;;3.45;3.15;;;;;;;3.87;100.00;98565.64;1777814;79;21048;-58
2021/04/16 03:48:55;;;;;;;3.90;3.37;;;;;;;3.85;100.00;98568.08;1780956;79;21443;-58
2021/04/16 03:51:24;;;;;;;3.92;3.42;;;;;;;3.84;100.00;98561.16;1767943;78;21053;-59
2021/04/16 03:53:51;;;;;;;3.70;3.33;;;;;;;3.83;100.00;98564.78;1779362;79;20994;-61
2021/04/16 03:56:19;;;;;;;3.45;3.15;;;;;;;3.80;100.00;98560.64;1789136;79;21041;-59
2021/04/16 03:58:46;;;;;;;3.45;3.10;;;;;;;3.77;99.96;98559.63;1773160;78;21562;-59
2021/04/16 04:01:15;;;;;;;3.40;3.10;;;;;;;3.73;100.00;98559.56;1778383;78;21346;-58
2021/04/16 04:03:43;;;;;;;3.60;3.30;;;;;;;3.72;100.00;98554.82;1764803;79;21203;-60
2021/04/16 04:06:11;;;;;;;3.33;3.00;;;;;;;3.71;100.00;98562.84;1765618;78;21105;-59
2021/04/16 04:08:41;;;;;;;2.80;2.60;;;;;;;3.68;100.00;98564.45;1765658;79;21124;-59
2021/04/16 04:11:10;;;;;;;3.45;3.15;;;;;;;3.65;100.00;98559.00;1782919;78;21034;-60
2021/04/16 04:13:39;;;;;;;3.20;2.90;;;;;;;3.67;100.00;98562.34;1767743;79;21263;-58
2021/04/16 04:16:08;;;;;;;2.70;2.50;;;;;;;3.66;100.00;98564.61;1767343;79;21586;-60
2021/04/16 04:18:36;;;;;;;2.25;2.05;;;;;;;3.70;100.00;98569.90;1784193;79;21025;-60
2021/04/16 04:21:05;;;;;;;2.90;2.60;;;;;;;3.70;100.00;98565.95;1765668;79;21152;-61
2021/04/16 04:23:35;;;;;;;2.65;2.45;;;;;;;3.72;100.00;98565.34;1767735;79;21100;-60
2021/04/16 04:26:04;;;;;;;3.22;2.92;;;;;;;3.74;100.00;98566.02;1753870;79;22266;-59
2021/04/16 04:28:31;;;;;;;3.22;2.83;;;;;;;3.74;100.00;98565.18;1747223;79;20941;-59
2021/04/16 04:30:59;;;;;;;2.67;2.47;;;;;;;3.75;100.00;98559.75;1768564;79;21112;-60
2021/04/16 04:33:28;;;;;;;2.75;2.55;;;;;;;3.75;100.00;98562.90;1771647;79;20990;-61
2021/04/16 04:35:57;;;;;;;2.90;2.70;;;;;;;3.75;100.00;98562.90;1778154;79;20939;-58
2021/04/16 04:38:24;;;;;;;2.70;2.50;;;;;;;3.76;100.00;98561.91;1788816;79;21353;-59
2021/04/16 04:40:52;;;;;;;2.87;2.67;;;;;;;3.77;100.00;98562.25;1780474;79;20938;-61
2021/04/16 04:43:19;;;;;;;2.45;2.22;;;;;;;3.80;100.00;98561.13;1768729;78;21571;-63
2021/04/16 04:45:46;;;;;;;2.83;2.62;;;;;;;3.83;100.00;98558.20;1767025;79;21053;-59
2021/04/16 04:48:14;;;;;;;2.55;2.22;;;;;;;3.84;100.00;98559.84;1772297;79;20923;-59
2021/04/16 04:50:41;;;;;;;2.85;2.60;;;;;;;3.88;100.00;98560.73;1772322;79;21359;-62
2021/04/16 04:53:09;;;;;;;2.65;2.45;;;;;;;3.89;100.00;98566.79;1770502;78;20970;-59
2021/04/16 04:55:36;;;;;;;4.40;3.05;;;;;;;3.89;100.00;98561.05;1768116;78;21077;-57
2021/04/16 04:58:04;;;;;;;4.15;3.15;;;;;;;3.87;100.00;98564.33;1795362;78;21025;-63
2021/04/16 05:00:31;;;;;;;3.27;2.77;;;;;;;3.86;100.00;98563.97;1782301;78;21111;-62
2021/04/16 05:02:59;;;;;;;3.20;2.90;;;;;;;3.89;100.00;98564.16;1792435;78;22901;-61
2021/04/16 05:05:27;;;;;;;3.25;2.65;;;;;;;3.89;99.93;98564.99;1772109;79;21136;-56
2021/04/16 05:07:56;;;;;;;3.30;2.58;;;;;;;3.88;99.78;98558.58;1766968;78;21576;-62
2021/04/16 05:10:23;;;;;;;2.35;1.90;;;;;;;3.87;99.83;98561.69;1767981;79;21167;-59
2021/04/16 05:12:51;;;;;;;2.55;2.33;;;;;;;3.89;99.75;98560.21;1768489;79;21121;-60
2021/04/16 05:15:19;;;;;;;2.47;2.27;;;;;;;3.88;99.77;98554.63;1765464;79;22722;-59
2021/04/16 05:17:47;;;;;;;2.08;1.87;;;;;;;3.90;99.83;98551.35;1765664;79;21034;-59
2021/04/16 05:20:15;;;;;;;2.52;2.33;;;;;;;3.91;99.81;98548.56;1765422;78;20982;-61
2021/04/16 05:22:44;;;;;;;3.85;2.47;;;;;;;3.93;100.00;98550.58;1777693;78;21006;-60
2021/04/16 05:25:12;;;;;;;2.10;1.90;;;;;;;3.94;99.78;98546.95;1777713;79;21176;-59
2021/04/16 05:27:40;;;;;;;3.52;2.37;;;;;;;3.92;99.59;98550.22;1775989;78;21159;-59
2021/04/16 05:30:08;;;;;;;2.55;1.92;;;;;;;3.92;99.67;98550.70;1771992;78;21599;-60
2021/04/16 05:32:35;;;;;;;2.15;1.98;;;;;;;3.94;99.66;98546.95;1770413;79;21062;-59
2021/04/16 05:35:05;;;;;;;3.00;1.95;;;;;;;3.97;99.50;98544.02;1782363;79;20963;-58
2021/04/16 05:37:33;;;;;;;2.47;2.08;;;;;;;3.99;99.48;98542.56;1784833;79;20970;-58
2021/04/16 05:40:00;;;;;;;2.25;1.82;;;;;;;4.00;99.49;98550.30;1765305;79;21344;-59
2021/04/16 05:42:28;;;;;;;4.85;2.58;;;;;;;4.02;99.44;98550.14;1767694;79;21185;-59
2021/04/16 05:44:56;;;;;;;2.67;2.47;;;;;;;4.02;99.56;98541.75;1767644;79;21057;-62
2021/04/16 05:47:24;;;;;;;3.67;3.02;;;;;;;4.05;99.54;98533.56;1767890;79;21077;-60
2021/04/16 05:49:52;;;;;;;2.58;2.37;;;;;;;4.08;99.41;98535.06;1765176;79;21105;-59
2021/04/16 05:52:20;;;;;;;2.85;2.40;;;;;;;4.09;99.10;98535.41;1765274;79;21199;-58
2021/04/16 05:54:48;;;;;;;2.70;2.35;;;;;;;4.09;99.08;98538.05;1767634;78;21077;-58
2021/04/16 05:57:15;;;;;;;2.40;1.98;;;;;;;4.11;99.22;98530.81;1765505;79;20922;-60
2021/04/16 05:59:44;;;;;;;3.30;2.12;;;;;;;4.15;99.30;98523.77;1765287;79;21126;-60
2021/04/16 06:02:35;;;;;;;3.77;2.55;;;;;;;4.16;99.23;98528.55;1765278;79;21542;-59
2021/04/16 06:05:06;;;;;;;2.62;2.17;;;;;;;4.23;99.83;98532.22;1769897;79;21614;-59
2021/04/16 06:07:34;;;;;;;4.42;3.20;;;;;;;4.33;99.59;98524.56;1777520;78;21465;-57
2021/04/16 06:10:06;;;;;;;2.47;2.27;;;;;;;4.39;99.55;98528.39;1779624;79;20997;-59
2021/04/16 06:12:34;;;;;;;2.40;2.20;;;;;;;4.45;99.41;98533.53;1771735;79;21515;-60
2021/04/16 06:15:08;;;;;;;3.50;2.90;;;;;;;4.49;99.17;98537.50;1765312;79;21029;-58
2021/04/16 06:17:36;;;;;;;4.33;3.92;;;;;;;4.54;98.89;98543.95;1765266;79;21365;-59
2021/04/16 06:20:06;;;;;;;3.90;3.50;;;;;;;4.56;98.69;98545.97;1766544;79;21125;-60
2021/04/16 06:22:34;;;;;;;4.45;3.55;;;;;;;4.61;98.87;98545.50;1766642;79;20995;-59
2021/04/16 06:25:06;;;;;;;4.75;3.50;;;;;;;4.64;98.35;98538.09;1767672;79;21069;-58
2021/04/16 06:27:34;;;;;;;3.47;3.15;;;;;;;4.65;98.02;98544.19;1765382;79;20989;-59
2021/04/16 06:30:02;;;;;;;2.83;2.37;;;;;;;4.66;97.69;98544.54;1770698;78;22279;-59
2021/04/16 06:32:29;;;;;;;2.40;2.10;;;;;;;4.66;97.48;98546.69;1795581;79;21104;-59
2021/04/16 06:34:56;;;;;;;2.62;2.37;;;;;;;4.67;97.57;98552.76;1794580;79;21159;-57
2021/04/16 06:37:24;;;;;;;3.70;3.40;;;;;;;4.67;97.61;98549.64;1784136;79;21093;-58
2021/04/16 06:39:53;;;;;;;4.83;4.03;;;;;;;4.70;97.73;98554.60;1769340;79;21207;-60
2021/04/16 06:42:30;;;;;;;3.40;3.10;;;;;;;4.78;97.91;98557.29;1768074;79;21565;-57
2021/04/16 06:45:00;;;;;;;3.05;2.45;;;;;;;4.80;97.36;98551.36;1769232;79;21160;-58
2021/04/16 06:47:35;;;;;;;2.92;2.62;;;;;;;4.81;97.25;98549.08;1766088;78;21152;-57
2021/04/16 06:50:05;;;;;;;3.25;2.77;;;;;;;4.81;97.03;98556.98;1780297;78;21069;-60
2021/04/16 06:52:46;;;;;;;2.62;2.42;;;;;;;4.85;97.39;98555.67;1783582;79;21123;-59
2021/04/16 06:55:29;;;;;;;3.10;2.42;;;;;;;4.88;97.19;98561.13;1763091;79;22162;-60
2021/04/16 06:58:05;;;;;;;2.70;2.50;;;;;;;4.91;97.15;98564.28;1768970;79;20998;-60
2021/04/16 07:00:59;;;;;;;2.47;2.27;;;;;;;4.93;97.11;98564.95;1765778;79;21593;-58
2021/04/16 07:03:29;;;;;;;2.25;2.00;;;;;;;4.96;97.00;98565.95;1764274;79;21191;-59
2021/04/16 07:06:02;;;;;;;3.00;2.80;;;;;;;5.00;96.98;98563.84;1765562;79;21587;-61
2021/04/16 07:09:02;;;;;;;2.60;2.40;;;;;;;5.03;96.92;98564.02;1761024;79;21389;-59
2021/04/16 07:11:41;;;;;;;2.58;2.37;;;;;;;5.04;96.63;98563.84;1772103;79;21543;-58
2021/04/16 07:14:39;;;;;;;3.40;3.08;;;;;;;5.06;96.40;98571.62;1785573;79;21033;-59
2021/04/16 07:17:11;;;;;;;4.08;3.55;;;;;;;5.04;96.72;98570.44;1780461;79;21025;-63
2021/04/16 07:19:39;;;;;;;2.90;2.52;;;;;;;5.08;96.86;98570.95;1785042;78;21147;-57
2021/04/16 07:22:22;;;;;;;4.00;3.20;;;;;;;5.07;96.76;98575.41;1765657;79;21559;-58
2021/04/16 07:24:52;;;;;;;2.40;1.98;;;;;;;5.07;96.89;98574.08;1767847;79;21551;-59
2021/04/16 07:27:24;;;;;;;2.98;2.50;;;;;;;5.15;97.19;98574.61;1764131;79;21188;-59
2021/04/16 07:29:56;;;;;;;6.22;2.87;;;;;;;5.22;96.84;98575.63;1768864;78;21180;-61
2021/04/16 07:32:39;;;;;;;3.70;2.52;;;;;;;5.21;96.59;98576.63;1775114;79;21165;-58
2021/04/16 07:35:31;;;;;;;2.50;2.20;;;;;;;5.23;96.39;98582.56;1770302;79;21356;-60
2021/04/16 07:38:05;;;;;;;3.10;2.85;;;;;;;5.22;96.19;98581.73;1784855;79;21188;-60
2021/04/16 07:40:44;;;;;;;3.62;2.80;;;;;;;5.26;96.26;98586.20;1766374;78;21188;-60
2021/04/16 07:43:16;;;;;;;3.50;3.17;;;;;;;5.31;96.16;98582.59;1765441;80;21183;-59
2021/04/16 07:45:47;;;;;;;3.47;3.00;;;;;;;5.32;95.91;98584.27;1772018;79;21045;-59
2021/04/16 07:48:30;;;;;;;4.03;3.62;;;;;;;5.37;96.10;98592.52;1776006;79;21346;-58
2021/04/16 07:50:55;;;;;;;3.37;3.08;;;;;;;5.44;96.20;98593.53;1765359;79;21191;-59
2021/04/16 07:53:38;;;;;;;3.47;3.10;;;;;;;5.52;96.35;98596.20;1766763;79;20910;-58
2021/04/16 07:56:22;;;;;;;2.65;2.40;;;;;;;5.59;96.31;98592.77;1764797;78;21160;-59
2021/04/16 07:59:09;;;;;;;2.83;2.62;;;;;;;5.67;95.97;98589.80;1761215;78;21140;-59
2021/04/16 08:01:37;;;;;;;2.92;2.65;;;;;;;5.67;95.31;98590.64;1766770;79;21379;-58
2021/04/16 08:04:15;;;;;;;7.28;3.20;;;;;;;5.73;95.45;98596.61;1766680;78;21017;-58
2021/04/16 08:06:45;;;;;;;4.78;2.98;;;;;;;5.74;94.98;98594.28;1771156;79;21032;-59
2021/04/16 08:09:24;;;;;;;2.72;2.50;;;;;;;5.76;95.05;98590.98;1783740;79;21060;-59
2021/04/16 08:12:11;;;;;;;3.42;2.85;;;;;;;5.79;95.17;98588.53;1777520;77;21543;-59
2021/04/16 08:14:43;;;;;;;2.40;2.20;;;;;;;5.81;94.92;98593.16;1784354;77;21326;-58
2021/04/16 08:17:30;;;;;;;2.85;2.60;;;;;;;5.83;94.78;98595.13;1796186;79;21115;-61
2021/04/16 08:20:25;;;;;;;3.60;2.72;;;;;;;5.82;94.43;98598.26;1779638;79;21160;-58
2021/04/16 08:22:55;;;;;;;4.85;2.85;;;;;;;5.80;94.23;98589.68;1745671;79;21106;-59
2021/04/16 08:25:33;;;;;;;3.35;2.87;;;;;;;5.77;94.04;98596.60;1779611;79;21099;-58
2021/04/16 08:28:09;;;;;;;3.02;2.60;;;;;;;5.76;94.08;98600.21;1779737;79;22026;-58
2021/04/16 08:30:55;;;;;;;2.85;2.62;;;;;;;5.75;94.33;98595.11;1751510;80;21152;-58
2021/04/16 08:33:43;;;;;;;2.80;2.50;;;;;;;5.78;94.63;98598.75;1779730;79;20988;-59
2021/04/16 08:36:31;;;;;;;2.37;2.17;;;;;;;5.81;94.70;98591.84;1794551;79;21221;-58
2021/04/16 08:39:09;;;;;;;2.55;2.30;;;;;;;5.82;94.58;98599.58;1779669;79;21140;-59
2021/04/16 08:41:50;;;;;;;2.77;2.30;;;;;;;5.82;94.53;98601.39;1797944;79;21518;-59
2021/04/16 08:44:18;;;;;;;2.65;2.00;;;;;;;5.83;94.91;98599.09;1797355;79;21139;-58
2021/04/16 08:46:50;;;;;;;2.95;2.70;;;;;;;5.88;95.19;98592.38;1779692;79;20993;-59
2021/04/16 08:49:28;;;;;;;2.27;2.12;;;;;;;5.90;94.82;98593.03;1789523;79;21098;-58
2021/04/16 08:52:14;;;;;;;3.47;2.37;;;;;;;5.87;94.67;98599.12;1786786;79;21140;-58
2021/04/16 08:54:42;;;;;;;2.67;2.40;;;;;;;5.85;94.86;98600.61;1804141;79;22095;-58
2021/04/16 08:57:17;;;;;;;3.17;2.45;;;;;;;5.87;95.36;98604.40;1783410;79;21622;-58
2021/04/16 09:00:21;;;;;;;2.58;2.15;;;;;;;5.91;96.13;98597.34;1779741;79;28217;-59
2021/04/16 09:02:58;;;;;;;2.50;1.92;;;;;;;6.01;95.70;98598.50;1754996;79;22884;-58
2021/04/16 09:05:31;;;;;;;2.80;2.20;;;;;;;5.97;95.55;98601.15;1704223;82;21759;-60
2021/04/16 09:08:12;;;;;;;1.92;1.67;;;;;;;6.05;96.02;98601.13;1674102;83;21455;-58
2021/04/16 09:10:53;;;;;;;2.17;1.95;;;;;;;6.12;95.59;98602.98;1703735;82;21032;-60
2021/04/16 09:13:44;;;;;;;2.33;2.10;;;;;;;6.18;95.32;98608.08;1704327;82;21037;-61
2021/04/16 09:16:21;;;;;;;3.10;2.60;;;;;;;6.26;95.44;98602.81;1723181;82;20944;-59
2021/04/16 09:18:54;;;;;;;3.08;2.72;;;;;;;6.30;94.87;98606.80;1704291;82;21001;-58
2021/04/16 09:21:30;;;;;;;2.72;2.35;;;;;;;6.35;94.55;98615.05;1716669;82;20993;-58
2021/04/16 09:24:09;;;;;;;3.58;2.62;;;;;;;6.37;94.31;98609.59;1719433;82;21045;-58
2021/04/16 09:26:50;;;;;;;2.75;2.55;;;;;;;6.36;93.85;98609.27;1737703;82;21203;-58
2021/04/16 09:29:35;;;;;;;2.62;1.80;;;;;;;6.37;93.99;98609.59;1704215;82;21208;-58
2021/04/16 09:32:04;;;;;;;2.77;2.17;;;;;;;6.39;93.62;98615.03;1719487;82;21140;-58
2021/04/16 09:34:48;;;;;;;3.05;2.42;;;;;;;6.45;93.50;98614.87;1738382;82;21371;-60
2021/04/16 09:37:41;;;;;;;3.90;3.25;;;;;;;6.49;93.40;98609.61;1713890;82;20969;-58
2021/04/16 09:40:25;;;;;;;4.05;3.25;;;;;;;6.53;93.10;98618.84;1727483;82;21787;-61
2021/04/16 09:43:13;;;;;;;2.83;2.62;;;;;;;6.56;93.03;98615.88;1719203;82;21113;-60
2021/04/16 09:45:48;;;;;;;3.15;2.85;;;;;;;6.60;92.84;98621.14;1710561;82;21509;-61
2021/04/16 09:48:22;;;;;;;3.87;2.58;;;;;;;6.61;92.43;98620.16;1704201;82;21385;-62
2021/04/16 09:51:01;;;;;;;3.70;2.98;;;;;;;6.58;92.70;98622.64;1719246;82;21104;-58
2021/04/16 09:53:35;;;;;;;3.50;2.92;;;;;;;6.67;93.29;98622.16;1721159;82;21597;-57
2021/04/16 09:56:10;;;;;;;3.55;2.60;;;;;;;6.78;93.55;98615.18;1704256;82;21029;-58
2021/04/16 09:58:53;;;;;;;2.80;2.35;;;;;;;6.86;93.20;98621.78;1714758;82;21025;-58
2021/04/16 10:01:22;;;;;;;2.55;2.20;;;;;;;6.90;92.40;98617.83;1701452;82;21202;-59
2021/04/16 10:04:06;;;;;;;3.25;2.58;;;;;;;6.88;92.07;98620.31;1691538;82;21149;-59
2021/04/16 10:06:39;;;;;;;2.47;2.27;;;;;;;6.90;92.31;98617.83;1691711;82;21586;-58
2021/04/16 10:09:24;;;;;;;2.50;2.00;;;;;;;6.94;91.89;98619.63;1702079;82;21606;-59
2021/04/16 10:12:04;;;;;;;2.80;2.08;;;;;;;6.93;91.62;98623.28;1697478;82;21109;-60
2021/04/16 10:14:35;;;;;;;2.83;1.80;;;;;;;6.92;91.29;98618.48;1705459;82;21451;-58
2021/04/16 10:17:19;;;;;;;2.52;1.80;;;;;;;6.92;91.08;98619.80;1699594;82;21620;-61
2021/04/16 10:19:54;;;;;;;1.80;1.53;;;;;;;6.94;90.96;98616.48;1691424;82;21025;-59
2021/04/16 10:22:31;;;;;;;2.85;2.17;;;;;;;6.95;90.75;98615.51;1689756;82;21602;-61
2021/04/16 12:40:09;;;;;;;1.60;1.50;;;;;;;7.05;87.05;98695.48;1762215;80;21006;-57
2021/04/16 12:42:37;;;;;;;1.50;1.40;;;;;;;7.02;87.26;98691.84;1755589;80;21047;-57
2021/04/16 12:45:07;;;;;;;2.05;1.67;;;;;;;7.02;87.19;98690.52;1761259;80;21580;-59
2021/04/16 12:47:34;;;;;;;2.15;1.95;;;;;;;7.04;87.23;98691.70;1757412;80;21057;-57
2021/04/16 12:50:05;;;;;;;3.87;2.50;;;;;;;7.06;87.30;98702.44;1745650;81;21022;-58
2021/04/16 12:52:32;;;;;;;3.60;2.10;;;;;;;7.09;87.36;98694.14;1734629;82;21148;-57
2021/04/16 12:54:59;;;;;;;1.80;1.70;;;;;;;7.09;87.39;98691.50;1756825;80;21195;-57
2021/04/16 12:57:40;;;;;;;1.70;1.60;;;;;;;7.05;87.65;98695.48;1777947;80;21199;-58
2021/04/16 13:00:30;;;;;;;2.42;1.90;;;;;;;7.03;87.89;98696.64;1756349;79;21507;-58
2021/04/16 13:03:07;;;;;;;1.77;1.67;;;;;;;7.02;87.86;98700.27;1759424;80;21206;-59
2021/04/16 13:05:35;;;;;;;2.22;2.00;;;;;;;7.06;87.86;98697.64;1760939;80;21060;-57
2021/04/16 13:08:04;;;;;;;2.17;1.98;;;;;;;7.06;88.00;98702.93;1767720;80;21187;-56
2021/04/16 13:10:32;;;;;;;1.70;1.60;;;;;;;7.04;88.17;98704.41;1760463;80;22042;-58
2021/04/16 13:13:00;;;;;;;2.20;2.00;;;;;;;7.01;87.95;98705.25;1751762;80;21167;-61
2021/04/16 13:15:28;;;;;;;3.42;1.62;;;;;;;6.99;88.14;98704.59;1766456;80;21147;-57
2021/04/16 13:18:01;;;;;;;1.95;1.85;;;;;;;6.92;88.28;98704.42;1770939;80;21230;-57
2021/04/16 13:20:28;;;;;;;2.37;2.17;;;;;;;6.89;88.53;98707.39;1763296;80;21179;-56
2021/04/16 13:22:56;;;;;;;2.37;2.00;;;;;;;6.88;88.56;98716.81;1747268;80;21260;-56
2021/04/16 13:25:29;;;;;;;2.00;1.72;;;;;;;6.87;88.57;98713.83;1763779;80;21038;-56
2021/04/16 13:27:57;;;;;;;1.70;1.60;;;;;;;6.87;88.46;98719.95;1734679;82;21078;-58
2021/04/16 13:30:27;;;;;;;1.98;1.77;;;;;;;6.87;88.40;98721.77;1742925;81;21220;-58
2021/04/16 13:32:57;;;;;;;2.55;1.77;;;;;;;6.86;88.48;98723.58;1727755;82;21172;-57
2021/04/16 13:35:40;;;;;;;2.45;2.22;;;;;;;6.85;88.64;98720.63;1720477;81;22277;-57
2021/04/16 13:38:18;;;;;;;2.42;2.10;;;;;;;6.81;88.78;98723.25;1749112;81;21182;-60
2021/04/16 13:40:45;;;;;;;2.25;1.72;;;;;;;6.78;88.88;98725.72;1742199;81;21159;-60
2021/04/16 13:43:13;;;;;;;3.00;1.80;;;;;;;6.76;88.91;98725.06;1738027;81;21084;-61
2021/04/16 13:45:40;;;;;;;2.10;1.90;;;;;;;6.72;88.63;98726.89;1734174;81;21584;-58
2021/04/16 13:48:09;;;;;;;2.25;1.77;;;;;;;6.69;88.62;98725.89;1791632;79;21143;-57
2021/04/16 13:50:36;;;;;;;1.87;1.77;;;;;;;6.68;88.77;98729.52;1734942;82;20943;-57
2021/04/16 13:53:04;;;;;;;1.70;1.60;;;;;;;6.68;88.93;98733.48;1735230;81;21128;-60
2021/04/16 13:55:32;;;;;;;1.80;1.67;;;;;;;6.66;88.88;98734.14;1786795;79;21598;-58
2021/04/16 13:58:00;;;;;;;1.95;1.85;;;;;;;6.61;89.11;98737.28;1787313;79;21139;-57
2021/04/16 14:00:29;;;;;;;1.77;1.67;;;;;;;6.61;89.15;98739.92;1784725;78;22816;-56
2021/04/16 14:03:03;;;;;;;1.92;1.72;;;;;;;6.61;89.27;98739.09;1783561;79;21586;-56
2021/04/16 14:05:31;;;;;;;2.20;2.00;;;;;;;6.58;89.46;98742.05;1746581;81;21083;-58
2021/04/16 14:08:01;;;;;;;2.83;1.77;;;;;;;6.58;89.49;98742.05;1734044;81;21658;-57
2021/04/16 14:10:29;;;;;;;2.12;1.75;;;;;;;6.58;89.31;98748.17;1767918;81;21134;-58
2021/04/16 14:12:56;;;;;;;2.30;2.00;;;;;;;6.56;89.45;98748.84;1750623;81;22107;-57
2021/04/16 14:15:24;;;;;;;2.60;1.65;;;;;;;6.52;89.63;98750.63;1752245;81;21065;-57
2021/04/16 14:17:56;;;;;;;2.17;1.95;;;;;;;6.52;89.87;98750.63;1766746;81;21081;-57